sensor_id;sensor_type;location;lat;lon;timestamp;P1;durP1;ratioP1;P2;durP2;ratioP2
21095;SDS011;10706;49.036;12.112;2023-09-18T00:00:24;12.00;;;5.68;;
21095;SDS011;10706;49.036;12.112;2023-09-18T00:02:50;15.30;;;6.30;;
21095;SDS011;10706;49.036;12.112;2023-09-18T00:05:15;11.45;;;5.55;;
21095;SDS011;10706;49.036;12.112;2023-09-18T00:07:42;12.25;;;5.72;;
21095;SDS011;10706;49.036;12.112;2023-09-18T00:10:11;14.75;;;6.55;;
21095;SDS011;10706;49.036;12.112;2023-09-18T00:12:37;12.95;;;5.97;;
21095;SDS011;10706;49.036;12.112;2023-09-18T00:15:04;12.10;;;5.65;;
21095;SDS011;10706;49.036;12.112;2023-09-18T00:17:31;12.70;;;5.95;;
21095;SDS011;10706;49.036;12.112;2023-09-18T00:19:57;13.63;;;6.35;;
21095;SDS011;10706;49.036;12.112;2023-09-18T00:22:22;13.32;;;6.35;;
21095;SDS011;10706;49.036;12.112;2023-09-18T00:24:49;14.32;;;5.90;;
21095;SDS011;10706;49.036;12.112;2023-09-18T00:27:15;15.80;;;7.07;;
21095;SDS011;10706;49.036;12.112;2023-09-18T00:29:41;14.73;;;6.90;;
21095;SDS011;10706;49.036;12.112;2023-09-18T00:32:07;13.38;;;6.38;;
21095;SDS011;10706;49.036;12.112;2023-09-18T00:34:33;16.35;;;6.22;;
21095;SDS011;10706;49.036;12.112;2023-09-18T00:36:59;18.58;;;6.70;;
21095;SDS011;10706;49.036;12.112;2023-09-18T00:39:25;13.20;;;6.45;;
21095;SDS011;10706;49.036;12.112;2023-09-18T00:41:52;13.32;;;6.00;;
21095;SDS011;10706;49.036;12.112;2023-09-18T00:44:22;13.57;;;6.20;;
21095;SDS011;10706;49.036;12.112;2023-09-18T00:46:51;15.23;;;7.10;;
21095;SDS011;10706;49.036;12.112;2023-09-18T00:49:17;14.40;;;6.47;;
21095;SDS011;10706;49.036;12.112;2023-09-18T00:51:45;14.75;;;6.45;;
21095;SDS011;10706;49.036;12.112;2023-09-18T00:54:12;13.63;;;6.47;;
21095;SDS011;10706;49.036;12.112;2023-09-18T00:56:40;13.20;;;6.43;;
21095;SDS011;10706;49.036;12.112;2023-09-18T00:59:06;13.15;;;6.15;;
21095;SDS011;10706;49.036;12.112;2023-09-18T01:01:33;13.13;;;6.35;;
21095;SDS011;10706;49.036;12.112;2023-09-18T01:03:59;12.02;;;5.70;;
21095;SDS011;10706;49.036;12.112;2023-09-18T01:06:25;11.57;;;5.57;;
21095;SDS011;10706;49.036;12.112;2023-09-18T01:08:55;13.02;;;5.72;;
21095;SDS011;10706;49.036;12.112;2023-09-18T01:14:02;12.57;;;6.03;;
21095;SDS011;10706;49.036;12.112;2023-09-18T01:17:12;12.57;;;5.90;;
21095;SDS011;10706;49.036;12.112;2023-09-18T01:22:11;11.60;;;5.07;;
21095;SDS011;10706;49.036;12.112;2023-09-18T01:24:43;12.02;;;5.25;;
21095;SDS011;10706;49.036;12.112;2023-09-18T01:27:12;12.27;;;4.97;;
21095;SDS011;10706;49.036;12.112;2023-09-18T01:29:45;11.40;;;5.35;;
21095;SDS011;10706;49.036;12.112;2023-09-18T01:32:11;10.15;;;4.82;;
21095;SDS011;10706;49.036;12.112;2023-09-18T01:34:39;13.77;;;5.20;;
21095;SDS011;10706;49.036;12.112;2023-09-18T01:37:18;11.10;;;4.95;;
21095;SDS011;10706;49.036;12.112;2023-09-18T01:39:48;12.07;;;4.65;;
21095;SDS011;10706;49.036;12.112;2023-09-18T01:42:16;11.68;;;5.00;;
21095;SDS011;10706;49.036;12.112;2023-09-18T01:44:42;12.07;;;5.10;;
21095;SDS011;10706;49.036;12.112;2023-09-18T01:47:17;12.63;;;4.90;;
21095;SDS011;10706;49.036;12.112;2023-09-18T01:49:44;11.60;;;4.82;;
21095;SDS011;10706;49.036;12.112;2023-09-18T01:52:11;13.68;;;5.07;;
21095;SDS011;10706;49.036;12.112;2023-09-18T01:54:37;11.30;;;4.93;;
21095;SDS011;10706;49.036;12.112;2023-09-18T01:57:03;12.02;;;4.40;;
21095;SDS011;10706;49.036;12.112;2023-09-18T01:59:30;11.43;;;5.05;;
21095;SDS011;10706;49.036;12.112;2023-09-18T02:01:56;12.43;;;5.47;;
21095;SDS011;10706;49.036;12.112;2023-09-18T02:04:22;12.05;;;4.93;;
21095;SDS011;10706;49.036;12.112;2023-09-18T02:06:50;10.90;;;4.78;;
21095;SDS011;10706;49.036;12.112;2023-09-18T02:09:17;11.13;;;5.03;;
21095;SDS011;10706;49.036;12.112;2023-09-18T02:11:43;10.55;;;4.80;;
21095;SDS011;10706;49.036;12.112;2023-09-18T02:14:13;11.50;;;4.47;;
21095;SDS011;10706;49.036;12.112;2023-09-18T02:16:40;12.43;;;4.63;;
21095;SDS011;10706;49.036;12.112;2023-09-18T02:19:08;11.88;;;4.72;;
21095;SDS011;10706;49.036;12.112;2023-09-18T02:21:36;10.32;;;4.90;;
21095;SDS011;10706;49.036;12.112;2023-09-18T02:24:02;12.07;;;5.07;;
21095;SDS011;10706;49.036;12.112;2023-09-18T02:26:28;8.80;;;4.35;;
21095;SDS011;10706;49.036;12.112;2023-09-18T02:28:57;11.40;;;4.90;;
21095;SDS011;10706;49.036;12.112;2023-09-18T02:31:25;10.48;;;4.72;;
21095;SDS011;10706;49.036;12.112;2023-09-18T02:33:51;11.15;;;4.70;;
21095;SDS011;10706;49.036;12.112;2023-09-18T02:36:16;10.20;;;4.40;;
21095;SDS011;10706;49.036;12.112;2023-09-18T02:38:46;11.13;;;4.63;;
21095;SDS011;10706;49.036;12.112;2023-09-18T02:41:12;12.45;;;5.18;;
21095;SDS011;10706;49.036;12.112;2023-09-18T02:43:37;9.98;;;4.22;;
21095;SDS011;10706;49.036;12.112;2023-09-18T02:46:04;9.45;;;4.32;;
21095;SDS011;10706;49.036;12.112;2023-09-18T02:48:31;10.75;;;4.60;;
21095;SDS011;10706;49.036;12.112;2023-09-18T02:50:58;10.23;;;4.97;;
21095;SDS011;10706;49.036;12.112;2023-09-18T02:53:25;10.63;;;4.78;;
21095;SDS011;10706;49.036;12.112;2023-09-18T02:55:51;10.88;;;4.82;;
21095;SDS011;10706;49.036;12.112;2023-09-18T02:58:19;8.98;;;4.15;;
21095;SDS011;10706;49.036;12.112;2023-09-18T03:00:46;10.55;;;4.82;;
21095;SDS011;10706;49.036;12.112;2023-09-18T03:03:14;10.57;;;4.75;;
21095;SDS011;10706;49.036;12.112;2023-09-18T03:05:41;11.32;;;5.00;;
21095;SDS011;10706;49.036;12.112;2023-09-18T03:08:08;10.43;;;4.70;;
21095;SDS011;10706;49.036;12.112;2023-09-18T03:10:36;13.88;;;4.90;;
21095;SDS011;10706;49.036;12.112;2023-09-18T03:13:07;9.25;;;4.25;;
21095;SDS011;10706;49.036;12.112;2023-09-18T03:15:36;8.43;;;4.13;;
21095;SDS011;10706;49.036;12.112;2023-09-18T03:18:02;11.98;;;4.65;;
21095;SDS011;10706;49.036;12.112;2023-09-18T03:20:30;11.45;;;4.57;;
21095;SDS011;10706;49.036;12.112;2023-09-18T03:22:57;11.32;;;4.75;;
21095;SDS011;10706;49.036;12.112;2023-09-18T03:25:24;9.05;;;4.30;;
21095;SDS011;10706;49.036;12.112;2023-09-18T03:27:51;9.77;;;4.60;;
21095;SDS011;10706;49.036;12.112;2023-09-18T03:30:19;11.05;;;5.13;;
21095;SDS011;10706;49.036;12.112;2023-09-18T03:32:47;10.90;;;4.65;;
21095;SDS011;10706;49.036;12.112;2023-09-18T03:35:13;9.85;;;4.65;;
21095;SDS011;10706;49.036;12.112;2023-09-18T03:37:45;9.38;;;4.70;;
21095;SDS011;10706;49.036;12.112;2023-09-18T03:40:19;9.88;;;4.65;;
21095;SDS011;10706;49.036;12.112;2023-09-18T03:42:45;10.63;;;4.90;;
21095;SDS011;10706;49.036;12.112;2023-09-18T03:45:12;10.07;;;4.70;;
21095;SDS011;10706;49.036;12.112;2023-09-18T03:47:39;9.10;;;4.25;;
21095;SDS011;10706;49.036;12.112;2023-09-18T03:50:06;12.80;;;4.90;;
21095;SDS011;10706;49.036;12.112;2023-09-18T03:52:36;11.45;;;5.35;;
21095;SDS011;10706;49.036;12.112;2023-09-18T03:55:04;11.68;;;5.18;;
21095;SDS011;10706;49.036;12.112;2023-09-18T03:57:31;9.55;;;4.72;;
21095;SDS011;10706;49.036;12.112;2023-09-18T03:59:56;12.05;;;5.90;;
21095;SDS011;10706;49.036;12.112;2023-09-18T04:02:23;11.55;;;4.63;;
21095;SDS011;10706;49.036;12.112;2023-09-18T04:04:51;10.27;;;4.40;;
21095;SDS011;10706;49.036;12.112;2023-09-18T04:07:18;12.68;;;4.68;;
21095;SDS011;10706;49.036;12.112;2023-09-18T04:09:44;10.65;;;4.97;;
21095;SDS011;10706;49.036;12.112;2023-09-18T04:12:10;9.57;;;4.65;;
21095;SDS011;10706;49.036;12.112;2023-09-18T04:14:37;11.68;;;4.90;;
21095;SDS011;10706;49.036;12.112;2023-09-18T04:17:03;10.10;;;5.03;;
21095;SDS011;10706;49.036;12.112;2023-09-18T04:19:29;12.07;;;5.38;;
21095;SDS011;10706;49.036;12.112;2023-09-18T04:21:55;13.30;;;5.22;;
21095;SDS011;10706;49.036;12.112;2023-09-18T04:24:21;10.93;;;4.57;;
21095;SDS011;10706;49.036;12.112;2023-09-18T04:26:48;13.40;;;4.97;;
21095;SDS011;10706;49.036;12.112;2023-09-18T04:29:15;10.68;;;4.55;;
21095;SDS011;10706;49.036;12.112;2023-09-18T04:31:42;11.70;;;5.78;;
21095;SDS011;10706;49.036;12.112;2023-09-18T04:34:08;11.40;;;5.05;;
21095;SDS011;10706;49.036;12.112;2023-09-18T04:36:33;10.63;;;4.93;;
21095;SDS011;10706;49.036;12.112;2023-09-18T04:39:01;12.13;;;5.78;;
21095;SDS011;10706;49.036;12.112;2023-09-18T04:41:29;10.90;;;4.47;;
21095;SDS011;10706;49.036;12.112;2023-09-18T04:43:55;11.77;;;5.07;;
21095;SDS011;10706;49.036;12.112;2023-09-18T04:46:21;10.98;;;4.88;;
21095;SDS011;10706;49.036;12.112;2023-09-18T04:48:48;13.15;;;5.53;;
21095;SDS011;10706;49.036;12.112;2023-09-18T04:51:13;10.00;;;5.05;;
21095;SDS011;10706;49.036;12.112;2023-09-18T04:53:39;11.50;;;4.82;;
21095;SDS011;10706;49.036;12.112;2023-09-18T04:56:06;10.98;;;5.00;;
21095;SDS011;10706;49.036;12.112;2023-09-18T04:58:31;11.23;;;4.88;;
21095;SDS011;10706;49.036;12.112;2023-09-18T05:00:58;9.80;;;4.60;;
21095;SDS011;10706;49.036;12.112;2023-09-18T05:03:25;10.98;;;5.05;;
21095;SDS011;10706;49.036;12.112;2023-09-18T05:05:52;11.00;;;4.97;;
21095;SDS011;10706;49.036;12.112;2023-09-18T05:08:18;12.15;;;5.28;;
21095;SDS011;10706;49.036;12.112;2023-09-18T05:10:44;11.63;;;5.20;;
21095;SDS011;10706;49.036;12.112;2023-09-18T05:13:11;12.85;;;5.32;;
21095;SDS011;10706;49.036;12.112;2023-09-18T05:15:37;11.27;;;5.45;;
21095;SDS011;10706;49.036;12.112;2023-09-18T05:18:03;19.70;;;6.07;;
21095;SDS011;10706;49.036;12.112;2023-09-18T05:20:29;9.68;;;4.68;;
21095;SDS011;10706;49.036;12.112;2023-09-18T05:22:56;10.48;;;5.00;;
21095;SDS011;10706;49.036;12.112;2023-09-18T05:25:24;10.98;;;5.07;;
21095;SDS011;10706;49.036;12.112;2023-09-18T05:27:52;11.57;;;4.93;;
21095;SDS011;10706;49.036;12.112;2023-09-18T05:30:24;13.82;;;5.70;;
21095;SDS011;10706;49.036;12.112;2023-09-18T05:32:58;12.23;;;5.00;;
21095;SDS011;10706;49.036;12.112;2023-09-18T05:35:33;11.48;;;5.63;;
21095;SDS011;10706;49.036;12.112;2023-09-18T05:38:03;10.68;;;5.07;;
21095;SDS011;10706;49.036;12.112;2023-09-18T05:40:30;13.20;;;5.53;;
21095;SDS011;10706;49.036;12.112;2023-09-18T05:42:56;16.17;;;6.20;;
21095;SDS011;10706;49.036;12.112;2023-09-18T05:45:22;12.00;;;5.47;;
21095;SDS011;10706;49.036;12.112;2023-09-18T05:47:49;10.98;;;5.43;;
21095;SDS011;10706;49.036;12.112;2023-09-18T05:50:15;12.02;;;5.57;;
21095;SDS011;10706;49.036;12.112;2023-09-18T05:52:46;13.20;;;5.43;;
21095;SDS011;10706;49.036;12.112;2023-09-18T05:55:14;12.77;;;5.45;;
21095;SDS011;10706;49.036;12.112;2023-09-18T05:57:40;13.80;;;5.40;;
21095;SDS011;10706;49.036;12.112;2023-09-18T06:00:06;10.68;;;5.00;;
21095;SDS011;10706;49.036;12.112;2023-09-18T06:02:32;11.65;;;5.25;;
21095;SDS011;10706;49.036;12.112;2023-09-18T06:04:59;12.90;;;5.55;;
21095;SDS011;10706;49.036;12.112;2023-09-18T06:07:29;10.77;;;4.90;;
21095;SDS011;10706;49.036;12.112;2023-09-18T06:09:55;14.55;;;5.03;;
21095;SDS011;10706;49.036;12.112;2023-09-18T06:12:22;14.60;;;5.60;;
21095;SDS011;10706;49.036;12.112;2023-09-18T06:14:48;11.85;;;5.18;;
21095;SDS011;10706;49.036;12.112;2023-09-18T06:17:15;12.18;;;6.25;;
21095;SDS011;10706;49.036;12.112;2023-09-18T06:19:41;12.45;;;5.47;;
21095;SDS011;10706;49.036;12.112;2023-09-18T06:22:08;13.07;;;5.40;;
21095;SDS011;10706;49.036;12.112;2023-09-18T06:24:34;17.02;;;5.30;;
21095;SDS011;10706;49.036;12.112;2023-09-18T06:27:00;13.10;;;5.82;;
21095;SDS011;10706;49.036;12.112;2023-09-18T06:29:29;14.23;;;5.15;;
21095;SDS011;10706;49.036;12.112;2023-09-18T06:31:56;15.27;;;5.35;;
21095;SDS011;10706;49.036;12.112;2023-09-18T06:34:21;13.27;;;4.97;;
21095;SDS011;10706;49.036;12.112;2023-09-18T06:36:47;11.15;;;4.68;;
21095;SDS011;10706;49.036;12.112;2023-09-18T06:39:14;10.68;;;4.75;;
21095;SDS011;10706;49.036;12.112;2023-09-18T06:41:40;9.25;;;4.03;;
21095;SDS011;10706;49.036;12.112;2023-09-18T06:44:06;9.00;;;4.55;;
21095;SDS011;10706;49.036;12.112;2023-09-18T06:46:32;9.57;;;4.50;;
21095;SDS011;10706;49.036;12.112;2023-09-18T06:48:59;9.35;;;4.22;;
21095;SDS011;10706;49.036;12.112;2023-09-18T06:51:25;10.13;;;4.40;;
21095;SDS011;10706;49.036;12.112;2023-09-18T06:53:52;10.02;;;4.70;;
21095;SDS011;10706;49.036;12.112;2023-09-18T06:56:19;10.68;;;4.60;;
21095;SDS011;10706;49.036;12.112;2023-09-18T06:58:45;12.38;;;5.00;;
21095;SDS011;10706;49.036;12.112;2023-09-18T07:01:16;14.32;;;4.78;;
21095;SDS011;10706;49.036;12.112;2023-09-18T07:03:44;15.63;;;5.50;;
21095;SDS011;10706;49.036;12.112;2023-09-18T07:06:12;14.88;;;4.72;;
21095;SDS011;10706;49.036;12.112;2023-09-18T07:08:44;12.73;;;5.15;;
21095;SDS011;10706;49.036;12.112;2023-09-18T07:11:10;12.55;;;5.07;;
21095;SDS011;10706;49.036;12.112;2023-09-18T07:13:37;12.77;;;5.40;;
21095;SDS011;10706;49.036;12.112;2023-09-18T07:16:03;12.27;;;5.25;;
21095;SDS011;10706;49.036;12.112;2023-09-18T07:18:30;12.35;;;5.13;;
21095;SDS011;10706;49.036;12.112;2023-09-18T07:20:56;14.60;;;5.38;;
21095;SDS011;10706;49.036;12.112;2023-09-18T07:23:22;16.13;;;5.10;;
21095;SDS011;10706;49.036;12.112;2023-09-18T07:25:48;11.23;;;5.55;;
21095;SDS011;10706;49.036;12.112;2023-09-18T07:28:14;14.30;;;5.35;;
21095;SDS011;10706;49.036;12.112;2023-09-18T07:30:43;12.60;;;5.20;;
21095;SDS011;10706;49.036;12.112;2023-09-18T07:33:12;11.13;;;4.90;;
21095;SDS011;10706;49.036;12.112;2023-09-18T07:35:48;12.50;;;5.47;;
21095;SDS011;10706;49.036;12.112;2023-09-18T07:38:16;14.20;;;5.00;;
21095;SDS011;10706;49.036;12.112;2023-09-18T07:40:44;13.35;;;5.10;;
21095;SDS011;10706;49.036;12.112;2023-09-18T07:43:12;11.48;;;4.80;;
21095;SDS011;10706;49.036;12.112;2023-09-18T07:45:38;11.80;;;5.60;;
21095;SDS011;10706;49.036;12.112;2023-09-18T07:48:05;10.35;;;4.43;;
21095;SDS011;10706;49.036;12.112;2023-09-18T07:50:34;10.85;;;4.65;;
21095;SDS011;10706;49.036;12.112;2023-09-18T07:53:00;11.50;;;4.75;;
21095;SDS011;10706;49.036;12.112;2023-09-18T07:55:27;11.00;;;4.85;;
21095;SDS011;10706;49.036;12.112;2023-09-18T07:57:54;12.95;;;5.05;;
21095;SDS011;10706;49.036;12.112;2023-09-18T08:00:20;14.02;;;5.20;;
21095;SDS011;10706;49.036;12.112;2023-09-18T08:02:47;12.25;;;5.10;;
21095;SDS011;10706;49.036;12.112;2023-09-18T08:05:15;14.63;;;5.25;;
21095;SDS011;10706;49.036;12.112;2023-09-18T08:07:42;11.50;;;5.45;;
21095;SDS011;10706;49.036;12.112;2023-09-18T08:10:08;15.88;;;5.65;;
21095;SDS011;10706;49.036;12.112;2023-09-18T08:45:14;10.52;;;4.75;;
21095;SDS011;10706;49.036;12.112;2023-09-18T08:48:00;13.27;;;4.22;;
21095;SDS011;10706;49.036;12.112;2023-09-18T08:50:27;14.45;;;4.70;;
21095;SDS011;10706;49.036;12.112;2023-09-18T08:52:53;12.48;;;4.65;;
21095;SDS011;10706;49.036;12.112;2023-09-18T08:55:20;11.25;;;4.53;;
21095;SDS011;10706;49.036;12.112;2023-09-18T08:57:47;13.70;;;4.78;;
21095;SDS011;10706;49.036;12.112;2023-09-18T09:00:14;12.40;;;4.28;;
21095;SDS011;10706;49.036;12.112;2023-09-18T09:02:43;13.38;;;4.78;;
21095;SDS011;10706;49.036;12.112;2023-09-18T09:05:10;14.10;;;5.30;;
21095;SDS011;10706;49.036;12.112;2023-09-18T09:07:36;11.43;;;4.22;;
21095;SDS011;10706;49.036;12.112;2023-09-18T09:10:02;15.32;;;4.43;;
21095;SDS011;10706;49.036;12.112;2023-09-18T09:12:48;11.65;;;4.47;;
21095;SDS011;10706;49.036;12.112;2023-09-18T09:15:29;15.90;;;4.55;;
21095;SDS011;10706;49.036;12.112;2023-09-18T09:18:07;15.52;;;3.95;;
21095;SDS011;10706;49.036;12.112;2023-09-18T09:20:36;13.73;;;4.57;;
21095;SDS011;10706;49.036;12.112;2023-09-18T09:23:02;9.77;;;4.30;;
21095;SDS011;10706;49.036;12.112;2023-09-18T09:25:30;12.40;;;4.20;;
21095;SDS011;10706;49.036;12.112;2023-09-18T09:27:58;15.10;;;4.90;;
21095;SDS011;10706;49.036;12.112;2023-09-18T09:30:28;19.88;;;5.25;;
21095;SDS011;10706;49.036;12.112;2023-09-18T09:32:55;13.30;;;4.95;;
21095;SDS011;10706;49.036;12.112;2023-09-18T09:35:23;11.65;;;4.85;;
21095;SDS011;10706;49.036;12.112;2023-09-18T09:38:00;14.00;;;4.72;;
21095;SDS011;10706;49.036;12.112;2023-09-18T09:40:39;10.32;;;4.20;;
21095;SDS011;10706;49.036;12.112;2023-09-18T09:43:07;13.13;;;4.88;;
21095;SDS011;10706;49.036;12.112;2023-09-18T09:45:35;10.55;;;4.07;;
21095;SDS011;10706;49.036;12.112;2023-09-18T09:48:05;15.05;;;4.70;;
21095;SDS011;10706;49.036;12.112;2023-09-18T09:50:32;11.57;;;4.45;;
21095;SDS011;10706;49.036;12.112;2023-09-18T09:52:59;10.75;;;4.53;;
21095;SDS011;10706;49.036;12.112;2023-09-18T09:55:26;10.32;;;4.03;;
21095;SDS011;10706;49.036;12.112;2023-09-18T09:57:58;11.65;;;3.40;;
21095;SDS011;10706;49.036;12.112;2023-09-18T10:00:28;9.95;;;3.47;;
21095;SDS011;10706;49.036;12.112;2023-09-18T10:03:03;7.82;;;3.00;;
21095;SDS011;10706;49.036;12.112;2023-09-18T10:05:35;8.73;;;3.45;;
21095;SDS011;10706;49.036;12.112;2023-09-18T10:08:07;11.75;;;3.63;;
21095;SDS011;10706;49.036;12.112;2023-09-18T10:10:38;16.85;;;3.85;;
21095;SDS011;10706;49.036;12.112;2023-09-18T10:16:11;11.15;;;3.40;;
21095;SDS011;10706;49.036;12.112;2023-09-18T10:18:55;16.52;;;3.72;;
21095;SDS011;10706;49.036;12.112;2023-09-18T10:21:33;17.08;;;4.30;;
21095;SDS011;10706;49.036;12.112;2023-09-18T10:24:57;13.85;;;3.80;;
21095;SDS011;10706;49.036;12.112;2023-09-18T10:27:06;13.68;;;3.83;;
21095;SDS011;10706;49.036;12.112;2023-09-18T10:29:34;13.77;;;3.75;;
21095;SDS011;10706;49.036;12.112;2023-09-18T10:32:05;13.25;;;3.90;;
21095;SDS011;10706;49.036;12.112;2023-09-18T10:34:35;10.50;;;3.33;;
21095;SDS011;10706;49.036;12.112;2023-09-18T10:37:02;13.85;;;3.70;;
21095;SDS011;10706;49.036;12.112;2023-09-18T10:39:31;10.52;;;3.38;;
21095;SDS011;10706;49.036;12.112;2023-09-18T10:42:01;12.20;;;3.30;;
21095;SDS011;10706;49.036;12.112;2023-09-18T10:44:29;13.43;;;3.65;;
21095;SDS011;10706;49.036;12.112;2023-09-18T10:46:58;11.18;;;3.25;;
21095;SDS011;10706;49.036;12.112;2023-09-18T10:49:27;11.85;;;3.75;;
21095;SDS011;10706;49.036;12.112;2023-09-18T10:51:54;15.35;;;3.38;;
21095;SDS011;10706;49.036;12.112;2023-09-18T10:54:21;12.65;;;3.95;;
21095;SDS011;10706;49.036;12.112;2023-09-18T10:56:49;14.15;;;3.20;;
21095;SDS011;10706;49.036;12.112;2023-09-18T10:59:16;14.48;;;3.63;;
21095;SDS011;10706;49.036;12.112;2023-09-18T11:01:43;9.27;;;3.28;;
21095;SDS011;10706;49.036;12.112;2023-09-18T11:04:11;9.55;;;2.92;;
21095;SDS011;10706;49.036;12.112;2023-09-18T11:09:21;10.65;;;3.83;;
21095;SDS011;10706;49.036;12.112;2023-09-18T11:11:54;12.00;;;3.38;;
21095;SDS011;10706;49.036;12.112;2023-09-18T11:14:42;11.00;;;3.35;;
21095;SDS011;10706;49.036;12.112;2023-09-18T11:22:57;14.32;;;3.50;;
21095;SDS011;10706;49.036;12.112;2023-09-18T11:25:42;11.80;;;3.47;;
21095;SDS011;10706;49.036;12.112;2023-09-18T11:28:13;12.77;;;3.67;;
21095;SDS011;10706;49.036;12.112;2023-09-18T11:30:51;14.60;;;3.80;;
21095;SDS011;10706;49.036;12.112;2023-09-18T11:41:34;14.18;;;3.10;;
21095;SDS011;10706;49.036;12.112;2023-09-18T11:46:47;10.23;;;2.80;;
21095;SDS011;10706;49.036;12.112;2023-09-18T11:49:19;9.13;;;2.40;;
21095;SDS011;10706;49.036;12.112;2023-09-18T11:51:47;15.70;;;2.50;;
21095;SDS011;10706;49.036;12.112;2023-09-18T11:54:13;12.55;;;3.38;;
21095;SDS011;10706;49.036;12.112;2023-09-18T11:56:41;13.52;;;2.72;;
21095;SDS011;10706;49.036;12.112;2023-09-18T11:59:07;10.18;;;2.50;;
21095;SDS011;10706;49.036;12.112;2023-09-18T12:01:33;16.85;;;2.50;;
21095;SDS011;10706;49.036;12.112;2023-09-18T12:04:04;9.27;;;2.88;;
21095;SDS011;10706;49.036;12.112;2023-09-18T12:06:34;9.20;;;2.97;;
21095;SDS011;10706;49.036;12.112;2023-09-18T12:09:01;12.48;;;3.00;;
21095;SDS011;10706;49.036;12.112;2023-09-18T12:11:28;12.35;;;2.90;;
21095;SDS011;10706;49.036;12.112;2023-09-18T12:13:55;10.70;;;2.80;;
21095;SDS011;10706;49.036;12.112;2023-09-18T12:16:21;10.80;;;3.35;;
21095;SDS011;10706;49.036;12.112;2023-09-18T12:18:50;8.98;;;2.40;;
21095;SDS011;10706;49.036;12.112;2023-09-18T12:21:16;10.75;;;2.38;;
21095;SDS011;10706;49.036;12.112;2023-09-18T12:23:43;10.85;;;2.30;;
21095;SDS011;10706;49.036;12.112;2023-09-18T12:26:11;12.55;;;2.33;;
21095;SDS011;10706;49.036;12.112;2023-09-18T12:28:39;8.80;;;2.00;;
21095;SDS011;10706;49.036;12.112;2023-09-18T12:31:11;12.48;;;2.15;;
21095;SDS011;10706;49.036;12.112;2023-09-18T12:33:41;8.45;;;1.95;;
21095;SDS011;10706;49.036;12.112;2023-09-18T12:36:18;7.90;;;1.63;;
21095;SDS011;10706;49.036;12.112;2023-09-18T12:38:54;8.07;;;1.67;;
21095;SDS011;10706;49.036;12.112;2023-09-18T12:41:25;10.48;;;1.60;;
21095;SDS011;10706;49.036;12.112;2023-09-18T12:43:51;7.93;;;1.40;;
21095;SDS011;10706;49.036;12.112;2023-09-18T12:46:19;4.68;;;0.90;;
21095;SDS011;10706;49.036;12.112;2023-09-18T12:48:46;4.25;;;0.90;;
21095;SDS011;10706;49.036;12.112;2023-09-18T12:51:13;4.80;;;1.13;;
21095;SDS011;10706;49.036;12.112;2023-09-18T12:53:41;8.05;;;1.35;;
21095;SDS011;10706;49.036;12.112;2023-09-18T12:58:41;7.22;;;0.95;;
21095;SDS011;10706;49.036;12.112;2023-09-18T13:01:07;4.45;;;1.10;;
21095;SDS011;10706;49.036;12.112;2023-09-18T13:06:10;6.30;;;1.25;;
21095;SDS011;10706;49.036;12.112;2023-09-18T13:08:43;7.15;;;1.55;;
21095;SDS011;10706;49.036;12.112;2023-09-18T13:11:09;5.13;;;1.35;;
21095;SDS011;10706;49.036;12.112;2023-09-18T13:13:39;2.97;;;1.00;;
21095;SDS011;10706;49.036;12.112;2023-09-18T13:16:06;3.28;;;1.10;;
21095;SDS011;10706;49.036;12.112;2023-09-18T13:18:36;8.15;;;1.15;;
21095;SDS011;10706;49.036;12.112;2023-09-18T13:21:09;2.75;;;1.05;;
21095;SDS011;10706;49.036;12.112;2023-09-18T13:23:37;5.43;;;1.35;;
21095;SDS011;10706;49.036;12.112;2023-09-18T13:26:04;9.77;;;1.63;;
21095;SDS011;10706;49.036;12.112;2023-09-18T13:28:32;5.47;;;1.20;;
21095;SDS011;10706;49.036;12.112;2023-09-18T13:31:00;5.45;;;1.15;;
21095;SDS011;10706;49.036;12.112;2023-09-18T13:33:31;7.28;;;1.70;;
21095;SDS011;10706;49.036;12.112;2023-09-18T13:39:45;10.43;;;2.03;;
21095;SDS011;10706;49.036;12.112;2023-09-18T13:42:47;6.10;;;1.52;;
21095;SDS011;10706;49.036;12.112;2023-09-18T13:45:46;5.80;;;1.10;;
21095;SDS011;10706;49.036;12.112;2023-09-18T13:52:05;6.85;;;1.00;;
21095;SDS011;10706;49.036;12.112;2023-09-18T13:54:34;8.68;;;1.08;;
21095;SDS011;10706;49.036;12.112;2023-09-18T13:57:00;4.03;;;0.95;;
21095;SDS011;10706;49.036;12.112;2023-09-18T14:03:13;5.30;;;1.00;;
21095;SDS011;10706;49.036;12.112;2023-09-18T14:05:42;3.63;;;0.90;;
21095;SDS011;10706;49.036;12.112;2023-09-18T14:08:08;7.95;;;1.23;;
21095;SDS011;10706;49.036;12.112;2023-09-18T14:10:35;6.28;;;1.02;;
21095;SDS011;10706;49.036;12.112;2023-09-18T14:13:03;10.15;;;1.42;;
21095;SDS011;10706;49.036;12.112;2023-09-18T14:15:30;10.50;;;1.33;;
21095;SDS011;10706;49.036;12.112;2023-09-18T14:17:56;1.30;;;0.57;;
21095;SDS011;10706;49.036;12.112;2023-09-18T14:20:22;8.13;;;1.23;;
21095;SDS011;10706;49.036;12.112;2023-09-18T14:22:48;1.80;;;0.63;;
21095;SDS011;10706;49.036;12.112;2023-09-18T14:25:15;3.67;;;0.70;;
21095;SDS011;10706;49.036;12.112;2023-09-18T14:27:41;2.15;;;0.70;;
21095;SDS011;10706;49.036;12.112;2023-09-18T14:30:08;3.80;;;1.05;;
21095;SDS011;10706;49.036;12.112;2023-09-18T14:32:34;3.28;;;0.88;;
21095;SDS011;10706;49.036;12.112;2023-09-18T14:35:01;2.38;;;0.82;;
21095;SDS011;10706;49.036;12.112;2023-09-18T14:37:30;0.65;;;0.47;;
21095;SDS011;10706;49.036;12.112;2023-09-18T14:39:56;1.98;;;1.10;;
21095;SDS011;10706;49.036;12.112;2023-09-18T14:42:22;2.63;;;0.90;;
21095;SDS011;10706;49.036;12.112;2023-09-18T14:44:48;1.60;;;0.77;;
21095;SDS011;10706;49.036;12.112;2023-09-18T14:47:15;3.42;;;0.88;;
21095;SDS011;10706;49.036;12.112;2023-09-18T14:49:41;3.55;;;0.93;;
21095;SDS011;10706;49.036;12.112;2023-09-18T14:52:11;3.75;;;1.08;;
21095;SDS011;10706;49.036;12.112;2023-09-18T14:54:39;6.47;;;1.20;;
21095;SDS011;10706;49.036;12.112;2023-09-18T14:57:05;4.60;;;1.13;;
21095;SDS011;10706;49.036;12.112;2023-09-18T14:59:31;2.70;;;1.00;;
21095;SDS011;10706;49.036;12.112;2023-09-18T15:01:57;4.10;;;1.17;;
21095;SDS011;10706;49.036;12.112;2023-09-18T15:04:23;4.82;;;1.23;;
21095;SDS011;10706;49.036;12.112;2023-09-18T15:06:49;5.20;;;1.30;;
21095;SDS011;10706;49.036;12.112;2023-09-18T15:09:15;2.78;;;1.13;;
21095;SDS011;10706;49.036;12.112;2023-09-18T15:11:42;5.55;;;1.50;;
21095;SDS011;10706;49.036;12.112;2023-09-18T15:14:08;2.80;;;1.10;;
21095;SDS011;10706;49.036;12.112;2023-09-18T15:16:34;5.93;;;1.33;;
21095;SDS011;10706;49.036;12.112;2023-09-18T15:19:00;1.80;;;1.08;;
21095;SDS011;10706;49.036;12.112;2023-09-18T15:21:29;4.15;;;1.58;;
21095;SDS011;10706;49.036;12.112;2023-09-18T15:23:55;4.20;;;1.35;;
21095;SDS011;10706;49.036;12.112;2023-09-18T15:26:22;5.78;;;1.50;;
21095;SDS011;10706;49.036;12.112;2023-09-18T15:28:48;5.93;;;1.30;;
21095;SDS011;10706;49.036;12.112;2023-09-18T15:31:14;6.82;;;1.35;;
21095;SDS011;10706;49.036;12.112;2023-09-18T15:33:40;4.63;;;1.55;;
21095;SDS011;10706;49.036;12.112;2023-09-18T15:36:06;2.67;;;1.10;;
21095;SDS011;10706;49.036;12.112;2023-09-18T15:38:32;4.32;;;1.65;;
21095;SDS011;10706;49.036;12.112;2023-09-18T15:40:58;5.25;;;1.40;;
21095;SDS011;10706;49.036;12.112;2023-09-18T15:43:27;7.55;;;1.30;;
21095;SDS011;10706;49.036;12.112;2023-09-18T15:45:54;6.55;;;1.40;;
21095;SDS011;10706;49.036;12.112;2023-09-18T15:48:22;4.68;;;1.55;;